createdAt,value
2023-01-25T00:00:53.972Z,9.45
2023-01-25T00:03:21.534Z,8.25
2023-01-25T00:05:49.169Z,9.43
2023-01-25T00:08:16.890Z,6.30
2023-01-25T00:10:44.293Z,7.90
2023-01-25T00:13:11.752Z,9.75
2023-01-25T00:15:39.189Z,9.13
2023-01-25T00:18:06.693Z,9.73
2023-01-25T00:20:34.157Z,9.02
2023-01-25T00:23:01.798Z,6.45
2023-01-25T00:25:29.280Z,7.35
2023-01-25T00:27:56.732Z,8.52
2023-01-25T00:30:24.226Z,8.43
2023-01-25T00:33:22.498Z,9.02
2023-01-25T00:35:49.904Z,8.25
2023-01-25T00:38:38.470Z,9.93
2023-01-25T00:41:05.930Z,10.75
2023-01-25T00:43:34.671Z,8.88
2023-01-25T00:46:02.551Z,9.30
2023-01-25T00:48:30.747Z,10.00
2023-01-25T00:51:03.972Z,10.63
2023-01-25T00:53:31.607Z,8.85
2023-01-25T00:55:59.259Z,8.25
2023-01-25T00:58:27.241Z,9.63
2023-01-25T01:00:55.918Z,9.32
2023-01-25T01:03:24.041Z,9.88
2023-01-25T01:06:02.163Z,9.32
2023-01-25T01:08:30.062Z,8.40
2023-01-25T01:11:07.396Z,10.57
2023-01-25T01:13:36.543Z,8.55
2023-01-25T01:16:08.482Z,9.80
2023-01-25T01:18:37.399Z,9.10
2023-01-25T01:21:05.936Z,9.13
2023-01-25T01:23:33.926Z,9.63
2023-01-25T01:26:06.200Z,9.57
2023-01-25T01:28:39.439Z,10.13
2023-01-25T01:31:10.948Z,8.88
2023-01-25T01:33:42.278Z,8.63
2023-01-25T01:36:15.546Z,9.00
2023-01-25T01:38:43.452Z,8.57
2023-01-25T01:41:12.218Z,10.07
2023-01-25T01:43:40.191Z,9.65
2023-01-25T01:46:35.337Z,8.95
2023-01-25T01:49:26.549Z,11.40
2023-01-25T01:52:03.099Z,9.65
2023-01-25T01:54:46.549Z,9.23
2023-01-25T01:57:18.546Z,9.15
2023-01-25T02:00:08.543Z,9.38
2023-01-25T02:02:43.061Z,8.52
2023-01-25T02:05:47.234Z,9.93
2023-01-25T02:08:15.556Z,10.52
2023-01-25T02:10:45.167Z,9.30
2023-01-25T02:13:13.092Z,10.20
2023-01-25T02:15:47.345Z,10.07
2023-01-25T02:18:15.826Z,9.30
2023-01-25T02:20:46.153Z,9.07
2023-01-25T02:23:47.411Z,7.78
2023-01-25T02:26:15.958Z,10.88
2023-01-25T02:28:57.700Z,9.93
2023-01-25T02:31:25.305Z,10.25
2023-01-25T02:33:53.292Z,8.98
2023-01-25T02:36:30.925Z,8.77
2023-01-25T02:39:02.464Z,9.35
2023-01-25T02:41:38.895Z,9.93
2023-01-25T02:44:15.379Z,8.68
2023-01-25T02:46:45.114Z,10.60
2023-01-25T02:49:13.635Z,8.50
2023-01-25T02:51:44.978Z,10.25
2023-01-25T02:54:13.924Z,10.45
2023-01-25T02:56:41.567Z,9.48
2023-01-25T02:59:10.246Z,9.52
2023-01-25T03:01:41.399Z,8.65
2023-01-25T03:04:09.102Z,9.68
2023-01-25T03:06:37.630Z,8.90
2023-01-25T03:09:07.345Z,10.48
2023-01-25T03:11:35.317Z,9.35
2023-01-25T03:14:03.021Z,8.30
2023-01-25T03:16:32.615Z,9.18
2023-01-25T03:19:01.065Z,8.82
2023-01-25T03:21:28.810Z,10.15
2023-01-25T03:23:59.190Z,8.30
2023-01-25T03:26:30.415Z,9.38
2023-01-25T03:29:09.716Z,9.98
2023-01-25T03:31:41.197Z,9.88
2023-01-25T03:34:08.748Z,8.70
2023-01-25T03:36:39.853Z,9.25
2023-01-25T03:39:07.318Z,8.88
2023-01-25T03:41:40.178Z,9.73
2023-01-25T03:44:11.607Z,8.68
2023-01-25T03:46:41.146Z,10.20
2023-01-25T03:49:09.400Z,9.65
2023-01-25T03:51:36.882Z,10.18
2023-01-25T03:54:05.314Z,9.80
2023-01-25T03:56:35.170Z,10.07
2023-01-25T03:59:11.608Z,9.88
2023-01-25T04:01:39.479Z,10.63
2023-01-25T04:04:06.903Z,9.98
2023-01-25T04:06:35.082Z,8.88
2023-01-25T04:09:03.666Z,10.18
2023-01-25T04:11:37.983Z,8.77
2023-01-25T04:14:05.939Z,9.68
2023-01-25T04:16:41.541Z,8.60
2023-01-25T04:19:32.236Z,10.50
2023-01-25T04:22:02.027Z,8.48
2023-01-25T04:24:34.758Z,8.95
2023-01-25T04:27:02.173Z,9.73
2023-01-25T04:29:40.964Z,9.95
2023-01-25T04:32:11.752Z,9.00
2023-01-25T04:34:39.352Z,8.60
2023-01-25T04:37:10.844Z,9.20
2023-01-25T04:39:47.966Z,8.43
2023-01-25T04:42:15.400Z,9.20
2023-01-25T04:44:45.068Z,10.45
2023-01-25T04:47:13.572Z,10.55
2023-01-25T04:49:41.701Z,10.63
2023-01-25T04:52:10.025Z,9.77
2023-01-25T04:54:37.710Z,10.20
2023-01-25T04:57:05.548Z,11.45
2023-01-25T04:59:33.124Z,10.52
2023-01-25T05:02:00.552Z,10.57
2023-01-25T05:04:28.422Z,10.85
2023-01-25T05:06:55.920Z,10.82
2023-01-25T05:09:24.402Z,11.23
2023-01-25T05:11:51.932Z,10.63
2023-01-25T05:14:31.723Z,11.65
2023-01-25T05:17:00.888Z,8.57
2023-01-25T05:19:28.502Z,9.80
2023-01-25T05:22:01.726Z,10.82
2023-01-25T05:24:41.693Z,11.90
2023-01-25T05:27:12.843Z,10.80
2023-01-25T05:29:56.472Z,10.30
2023-01-25T05:32:38.463Z,8.80
2023-01-25T05:35:07.323Z,9.65
2023-01-25T05:37:35.134Z,11.77
2023-01-25T05:40:06.975Z,8.68
2023-01-25T05:42:38.196Z,11.00
2023-01-25T05:45:16.348Z,11.10
2023-01-25T05:47:46.246Z,9.68
2023-01-25T05:50:16.513Z,10.65
2023-01-25T05:52:55.125Z,11.10
2023-01-25T05:55:22.928Z,11.48
2023-01-25T05:57:56.182Z,10.43
2023-01-25T06:00:24.319Z,12.30
2023-01-25T06:02:52.297Z,11.38
2023-01-25T06:05:24.192Z,11.18
2023-01-25T06:07:51.791Z,11.57
2023-01-25T06:10:21.232Z,12.20
2023-01-25T06:12:52.789Z,10.75
2023-01-25T06:15:20.428Z,12.95
2023-01-25T06:17:49.550Z,12.45
2023-01-25T06:20:34.575Z,10.90
2023-01-25T06:23:13.854Z,11.40
2023-01-25T06:25:41.377Z,11.75
2023-01-25T06:28:09.180Z,13.38
2023-01-25T06:30:37.267Z,11.77
2023-01-25T06:33:13.976Z,13.00
2023-01-25T06:35:42.709Z,12.55
2023-01-25T06:38:10.309Z,12.23
2023-01-25T06:40:39.844Z,12.63
2023-01-25T06:43:09.075Z,11.98
2023-01-25T06:45:39.109Z,13.15
2023-01-25T06:48:06.991Z,11.13
2023-01-25T06:50:34.674Z,12.65
2023-01-25T06:53:02.345Z,11.73
2023-01-25T06:55:32.517Z,11.35
2023-01-25T06:58:01.504Z,11.63
2023-01-25T07:00:29.389Z,11.88
2023-01-25T07:02:57.059Z,10.95
2023-01-25T07:05:24.812Z,12.80
2023-01-25T07:07:58.671Z,9.15
2023-01-25T07:10:26.272Z,12.98
2023-01-25T07:12:53.972Z,11.95
2023-01-25T07:15:23.809Z,11.52
2023-01-25T07:17:53.504Z,12.35
2023-01-25T07:20:24.152Z,11.40
2023-01-25T07:22:51.915Z,10.82
2023-01-25T07:25:19.547Z,12.65
2023-01-25T07:27:47.209Z,12.27
2023-01-25T07:30:17.298Z,12.43
2023-01-25T07:32:45.056Z,13.60
2023-01-25T07:35:14.010Z,13.57
2023-01-25T07:37:41.644Z,11.32
2023-01-25T07:40:11.254Z,11.23
2023-01-25T07:42:44.623Z,13.20
2023-01-25T07:45:31.959Z,5.97
2023-01-25T07:48:11.585Z,11.50
2023-01-25T07:50:39.906Z,13.85
2023-01-25T07:53:08.343Z,12.77
2023-01-25T07:55:38.291Z,15.05
2023-01-25T07:58:06.316Z,12.35
2023-01-25T08:00:34.092Z,12.70
2023-01-25T08:03:14.284Z,13.30
2023-01-25T08:05:49.835Z,12.15
2023-01-25T08:08:17.558Z,12.18
2023-01-25T08:10:51.325Z,14.82
2023-01-25T08:13:21.333Z,11.75
2023-01-25T08:16:04.330Z,11.23
2023-01-25T08:19:37.903Z,11.95
2023-01-25T08:22:08.431Z,11.13
2023-01-25T08:24:39.295Z,12.80
2023-01-25T08:27:07.060Z,12.57
2023-01-25T08:29:34.755Z,11.98
2023-01-25T08:32:04.477Z,13.82
2023-01-25T08:34:32.539Z,12.13
2023-01-25T08:37:00.318Z,10.38
2023-01-25T08:39:28.541Z,11.07
2023-01-25T08:41:56.438Z,11.07
2023-01-25T08:44:28.904Z,12.20
2023-01-25T08:46:56.633Z,13.07
2023-01-25T08:49:24.229Z,13.82
2023-01-25T08:52:09.972Z,11.80
2023-01-25T08:54:46.228Z,11.38
2023-01-25T08:57:16.043Z,9.65
2023-01-25T08:59:44.782Z,12.50
2023-01-25T09:02:12.800Z,10.25
2023-01-25T09:04:43.267Z,13.30
2023-01-25T09:07:13.401Z,11.52
2023-01-25T09:09:46.276Z,13.35
2023-01-25T09:12:14.239Z,10.70
2023-01-25T09:14:42.127Z,10.23
2023-01-25T09:17:12.192Z,11.48
2023-01-25T09:19:44.530Z,10.85
2023-01-25T09:22:13.440Z,11.30
2023-01-25T09:24:41.196Z,10.68
2023-01-25T09:27:08.903Z,11.57
2023-01-25T09:29:39.423Z,9.95
2023-01-25T09:32:07.349Z,11.50
2023-01-25T09:34:44.041Z,12.55
2023-01-25T09:37:11.757Z,10.77
2023-01-25T09:39:39.514Z,9.68
2023-01-25T09:43:01.609Z,10.25
2023-01-25T09:45:36.713Z,9.95
2023-01-25T09:48:37.912Z,11.57
2023-01-25T09:51:18.590Z,10.48
2023-01-25T09:53:51.724Z,10.00
2023-01-25T09:56:27.861Z,9.18
2023-01-25T09:59:00.889Z,11.88
2023-01-25T10:01:40.945Z,10.88
2023-01-25T10:04:38.359Z,11.60
2023-01-25T10:07:25.303Z,9.57
2023-01-25T10:10:07.598Z,11.95
2023-01-25T10:12:42.182Z,11.25
2023-01-25T10:15:27.066Z,11.02
2023-01-25T10:18:20.837Z,12.50
2023-01-25T10:20:55.811Z,10.65
2023-01-25T10:23:44.895Z,11.10
2023-01-25T10:26:32.920Z,9.77
2023-01-25T10:29:18.837Z,11.20
2023-01-25T10:31:54.658Z,10.15
2023-01-25T10:34:54.317Z,10.50
2023-01-25T10:37:26.832Z,9.82
2023-01-25T10:40:03.256Z,9.30
2023-01-25T10:42:40.405Z,9.65
2023-01-25T10:45:16.223Z,11.18
2023-01-25T10:47:52.828Z,9.60
2023-01-25T10:50:46.612Z,10.98
2023-01-25T10:53:34.807Z,7.07
2023-01-25T10:56:11.272Z,10.57
2023-01-25T10:58:46.060Z,12.25
2023-01-25T11:03:52.544Z,10.02
2023-01-25T11:06:37.118Z,9.10
2023-01-25T11:09:23.201Z,10.50
2023-01-25T11:11:56.437Z,11.73
2023-01-25T11:14:28.963Z,10.07
2023-01-25T11:16:57.917Z,10.95
2023-01-25T11:19:41.992Z,11.90
2023-01-25T11:22:25.022Z,9.77
2023-01-25T11:24:52.893Z,16.25
2023-01-25T11:27:24.353Z,10.60
2023-01-25T11:30:11.855Z,10.88
2023-01-25T11:32:40.706Z,10.30
2023-01-25T11:35:16.319Z,10.00
2023-01-25T11:38:06.313Z,10.70
2023-01-25T11:40:47.441Z,12.27
2023-01-25T11:43:30.133Z,10.07
2023-01-25T11:46:21.037Z,11.63
2023-01-25T11:48:53.781Z,9.68
2023-01-25T11:51:25.120Z,10.00
2023-01-25T11:54:09.900Z,12.55
2023-01-25T11:56:46.392Z,11.38
2023-01-25T11:59:44.820Z,11.45
2023-01-25T12:02:27.378Z,11.60
2023-01-25T12:05:06.294Z,12.07
2023-01-25T12:07:54.938Z,12.93
2023-01-25T12:10:35.093Z,10.45
2023-01-25T12:13:15.381Z,11.73
2023-01-25T12:15:51.658Z,11.50
2023-01-25T12:18:45.765Z,11.68
2023-01-25T12:21:40.519Z,11.07
2023-01-25T12:24:17.878Z,11.03
2023-01-25T12:27:06.610Z,12.65
2023-01-25T12:29:46.047Z,10.10
2023-01-25T12:32:34.423Z,12.30
2023-01-25T12:35:23.014Z,12.88
2023-01-25T12:37:56.245Z,8.75
2023-01-25T12:40:51.573Z,10.07
2023-01-25T12:43:40.730Z,11.52
2023-01-25T12:46:21.802Z,11.90
2023-01-25T12:48:53.494Z,11.10
2023-01-25T12:51:24.595Z,11.57
2023-01-25T12:53:53.301Z,10.90
2023-01-25T12:56:44.855Z,10.13
2023-01-25T12:59:39.716Z,14.43
2023-01-25T13:02:23.602Z,12.00
2023-01-25T13:05:20.901Z,10.95
2023-01-25T13:07:59.933Z,12.50
2023-01-25T13:10:34.553Z,11.27
2023-01-25T13:13:15.895Z,12.27
2023-01-25T13:15:45.771Z,14.65
2023-01-25T13:18:28.625Z,10.65
2023-01-25T13:21:01.205Z,12.43
2023-01-25T13:23:36.115Z,9.07
2023-01-25T13:29:13.304Z,10.25
2023-01-25T13:31:59.088Z,8.48
2023-01-25T13:34:35.787Z,12.38
2023-01-25T13:37:20.870Z,13.15
2023-01-25T13:39:53.324Z,10.68
2023-01-25T13:42:42.393Z,12.73
2023-01-25T13:45:20.349Z,10.98
2023-01-25T13:48:10.925Z,11.93
2023-01-25T13:50:43.731Z,11.57
2023-01-25T13:53:19.972Z,12.23
2023-01-25T13:56:12.236Z,14.38
2023-01-25T13:58:49.219Z,12.07
2023-01-25T14:01:19.924Z,12.45
2023-01-25T14:04:04.694Z,12.35
2023-01-25T14:06:39.837Z,10.45
2023-01-25T14:09:17.137Z,11.95
2023-01-25T14:11:52.498Z,11.00
2023-01-25T14:14:43.217Z,9.70
2023-01-25T14:17:14.170Z,12.05
2023-01-25T14:19:49.911Z,11.82
2023-01-25T14:22:20.640Z,12.02
2023-01-25T14:25:09.789Z,7.28
2023-01-25T14:27:59.733Z,10.85
2023-01-25T14:30:32.858Z,10.73
2023-01-25T14:33:40.397Z,9.43
2023-01-25T14:36:24.589Z,8.95
2023-01-25T14:38:53.293Z,7.75
2023-01-25T14:41:31.863Z,8.38
2023-01-25T14:44:05.525Z,11.75
2023-01-25T14:46:35.810Z,12.30
2023-01-25T14:49:15.534Z,12.48
2023-01-25T14:51:58.055Z,12.80
2023-01-25T14:54:35.245Z,14.93
2023-01-25T14:57:06.083Z,13.23
2023-01-25T14:59:39.544Z,11.07
2023-01-25T15:02:26.515Z,13.48
2023-01-25T15:05:14.697Z,12.30
2023-01-25T15:07:48.275Z,10.88
2023-01-25T15:10:30.829Z,9.25
2023-01-25T15:13:18.122Z,8.40
2023-01-25T15:16:02.065Z,11.40
2023-01-25T15:18:51.153Z,11.23
2023-01-25T15:21:28.710Z,12.68
2023-01-25T15:23:58.661Z,12.48
2023-01-25T15:26:28.601Z,8.82
2023-01-25T15:28:58.381Z,9.98
2023-01-25T15:31:33.997Z,11.27
2023-01-25T15:34:01.988Z,15.05
2023-01-25T15:36:33.471Z,7.07
2023-01-25T15:39:01.150Z,11.10
2023-01-25T15:41:28.672Z,11.93
2023-01-25T15:43:56.196Z,10.48
2023-01-25T15:46:26.963Z,11.30
2023-01-25T15:48:55.265Z,9.98
2023-01-25T15:51:23.585Z,10.60
2023-01-25T15:53:51.550Z,10.50
2023-01-25T15:56:20.266Z,8.02
2023-01-25T15:58:53.346Z,10.48
2023-01-25T16:01:27.081Z,9.95
2023-01-25T16:03:59.448Z,8.32
2023-01-25T16:06:46.068Z,14.15
2023-01-25T16:09:29.986Z,12.30
2023-01-25T16:11:59.405Z,13.10
2023-01-25T16:14:31.642Z,13.38
2023-01-25T16:17:03.031Z,12.32
2023-01-25T16:19:31.104Z,12.43
2023-01-25T16:22:01.249Z,14.25
2023-01-25T16:24:30.113Z,14.52
2023-01-25T16:26:59.159Z,11.48
2023-01-25T16:29:27.060Z,9.95
2023-01-25T16:31:55.025Z,10.75
2023-01-25T16:34:23.914Z,10.82
2023-01-25T16:36:51.563Z,13.25
2023-01-25T16:39:22.002Z,12.13
2023-01-25T16:41:50.176Z,13.43
2023-01-25T16:44:18.746Z,13.50
2023-01-25T16:46:48.341Z,11.70
2023-01-25T16:49:20.317Z,12.13
2023-01-25T16:51:50.260Z,12.73
2023-01-25T16:54:20.045Z,10.65
2023-01-25T16:56:50.079Z,11.90
2023-01-25T16:59:18.647Z,12.43
2023-01-25T17:01:47.501Z,13.80
2023-01-25T17:04:15.720Z,11.25
2023-01-25T17:06:53.195Z,13.43
2023-01-25T17:09:24.205Z,12.15
2023-01-25T17:11:56.620Z,13.35
2023-01-25T17:14:24.784Z,10.95
2023-01-25T17:16:53.760Z,11.90
2023-01-25T17:19:21.611Z,11.50
2023-01-25T17:21:49.392Z,12.73
2023-01-25T17:24:19.559Z,12.27
2023-01-25T17:26:47.785Z,13.35
2023-01-25T17:29:15.349Z,13.15
2023-01-25T17:31:44.471Z,11.80
2023-01-25T17:34:16.177Z,14.75
2023-01-25T17:36:44.870Z,14.30
2023-01-25T17:39:17.145Z,13.48
2023-01-25T17:41:48.916Z,14.73
2023-01-25T17:44:22.049Z,14.45
2023-01-25T17:46:50.438Z,14.23
2023-01-25T17:49:28.692Z,13.57
2023-01-25T17:51:56.257Z,7.47
2023-01-25T17:54:47.392Z,14.88
2023-01-25T17:57:24.170Z,14.18
2023-01-25T17:59:54.651Z,12.48
2023-01-25T18:02:26.993Z,15.38
2023-01-25T18:04:56.989Z,16.92
2023-01-25T18:07:52.097Z,14.77
2023-01-25T18:10:42.074Z,13.85
2023-01-25T18:13:23.764Z,16.27
2023-01-25T18:16:47.573Z,14.23
2023-01-25T18:36:57.499Z,14.60
2023-01-25T18:40:19.278Z,13.77
2023-01-25T18:43:31.940Z,15.50
2023-01-25T18:46:35.991Z,14.55
2023-01-25T18:49:26.146Z,13.05
2023-01-25T18:52:11.358Z,14.63
2023-01-25T18:54:42.049Z,16.80
2023-01-25T18:57:11.389Z,16.88
2023-01-25T18:59:39.814Z,15.85
2023-01-25T19:02:09.805Z,15.25
2023-01-25T19:04:40.033Z,17.42
2023-01-25T19:07:12.068Z,16.92
2023-01-25T19:09:43.516Z,15.35
2023-01-25T19:12:11.657Z,15.18
2023-01-25T19:14:39.692Z,15.00
2023-01-25T19:17:09.677Z,14.57
2023-01-25T19:19:37.465Z,17.90
2023-01-25T19:22:05.283Z,16.60
2023-01-25T19:24:35.934Z,16.23
2023-01-25T19:27:03.624Z,15.23
2023-01-25T19:29:34.026Z,15.75
2023-01-25T19:32:01.587Z,17.35
2023-01-25T19:34:29.204Z,17.88
2023-01-25T19:36:59.183Z,15.82
2023-01-25T19:39:32.326Z,14.15
2023-01-25T19:42:01.581Z,16.95
2023-01-25T19:44:29.183Z,14.40
2023-01-25T19:46:56.751Z,17.30
2023-01-25T19:49:26.939Z,16.65
2023-01-25T19:51:58.416Z,14.52
2023-01-25T19:54:25.981Z,19.98
2023-01-25T19:56:58.094Z,17.42
2023-01-25T19:59:27.705Z,14.63
2023-01-25T20:01:57.921Z,17.10
2023-01-25T20:04:25.557Z,15.77
2023-01-25T20:06:53.316Z,15.35
2023-01-25T20:09:25.080Z,16.33
2023-01-25T20:11:55.632Z,15.80
2023-01-25T20:14:25.745Z,14.10
2023-01-25T20:16:53.618Z,16.90
2023-01-25T20:19:21.249Z,15.20
2023-01-25T20:21:51.371Z,15.95
2023-01-25T20:24:19.312Z,16.08
2023-01-25T20:26:54.282Z,15.18
2023-01-25T20:29:23.942Z,16.73
2023-01-25T20:31:51.974Z,10.35
2023-01-25T20:34:23.494Z,15.95
2023-01-25T20:36:53.358Z,17.25
2023-01-25T20:39:22.421Z,13.48
2023-01-25T20:41:53.776Z,18.98
2023-01-25T20:44:21.753Z,15.75
2023-01-25T20:46:51.751Z,19.05
2023-01-25T20:49:19.500Z,14.68
2023-01-25T20:51:47.671Z,17.23
2023-01-25T20:54:18.688Z,19.38
2023-01-25T20:56:48.105Z,17.05
2023-01-25T20:59:17.730Z,17.85
2023-01-25T21:01:45.797Z,16.58
2023-01-25T21:04:16.578Z,17.52
2023-01-25T21:06:45.303Z,17.58
2023-01-25T21:09:13.125Z,17.13
2023-01-25T21:11:41.076Z,18.95
2023-01-25T21:14:12.019Z,12.40
2023-01-25T21:16:39.719Z,17.92
2023-01-25T21:19:10.674Z,16.10
2023-01-25T21:21:38.675Z,17.77
2023-01-25T21:24:06.745Z,17.25
2023-01-25T21:29:34.245Z,18.20
2023-01-25T21:32:04.747Z,16.20
2023-01-25T21:34:33.628Z,13.70
2023-01-25T21:37:01.287Z,13.70
2023-01-25T21:39:28.809Z,15.75
2023-01-25T21:41:56.255Z,15.02
2023-01-25T21:44:42.072Z,16.92
2023-01-25T21:47:28.920Z,16.33
2023-01-25T21:50:15.437Z,15.75
2023-01-25T21:52:43.099Z,19.15
2023-01-25T21:55:10.898Z,13.27
2023-01-25T21:57:45.698Z,15.45
2023-01-25T22:02:41.438Z,7.47
2023-01-25T22:05:09.407Z,14.00
2023-01-25T22:07:37.203Z,15.93
2023-01-25T22:10:05.126Z,18.15
2023-01-25T22:12:32.679Z,16.63
2023-01-25T22:15:00.237Z,17.02
2023-01-25T22:17:28.535Z,15.57
2023-01-25T22:19:56.169Z,18.77
2023-01-25T22:22:23.899Z,17.13
2023-01-25T22:24:51.392Z,19.10
2023-01-25T22:27:41.445Z,16.98
2023-01-25T22:30:10.840Z,19.02
2023-01-25T22:32:38.533Z,14.02
2023-01-25T22:35:06.524Z,19.98
2023-01-25T22:37:35.917Z,20.38
2023-01-25T22:40:03.847Z,16.30
2023-01-25T22:42:31.211Z,18.77
2023-01-25T22:44:58.731Z,18.20
2023-01-25T22:47:26.264Z,21.10
2023-01-25T22:49:53.722Z,19.85
2023-01-25T22:52:21.209Z,13.95
2023-01-25T22:54:50.240Z,19.60
2023-01-25T22:57:17.704Z,20.98
2023-01-25T22:59:45.156Z,15.70
2023-01-25T23:02:12.707Z,19.05
2023-01-25T23:04:40.184Z,19.23
2023-01-25T23:07:12.834Z,19.17
2023-01-25T23:09:40.810Z,21.90
2023-01-25T23:12:08.546Z,14.25
2023-01-25T23:14:51.291Z,18.20
2023-01-25T23:17:38.779Z,17.83
2023-01-25T23:20:07.995Z,20.20
2023-01-25T23:22:35.706Z,18.23
2023-01-25T23:25:04.088Z,20.35
2023-01-25T23:27:31.445Z,18.27
2023-01-25T23:29:58.941Z,21.25
2023-01-25T23:32:26.337Z,20.65
2023-01-25T23:34:53.740Z,16.65
2023-01-25T23:37:22.834Z,18.25
2023-01-25T23:39:50.676Z,18.52
2023-01-25T23:42:18.445Z,18.33
2023-01-25T23:44:45.980Z,21.77
2023-01-25T23:47:13.387Z,11.77
2023-01-25T23:49:40.918Z,18.88
2023-01-25T23:52:08.349Z,16.67
2023-01-25T23:54:35.943Z,20.52
2023-01-25T23:57:03.575Z,15.63
2023-01-25T23:59:31.196Z,16.08
